Time;durP1;ratioP1;P1;durP2;ratioP2;P2;SDS_P1;SDS_P2;PMS_P1;PMS_P2;Temp;Humidity;BMP_temperature;BMP_pressure;BME280_temperature;BME280_humidity;BME280_pressure;Samples;Min_cycle;Max_cycle;Signal;HPM_P1;HPM_P2
2021/06/19 00:01:23;;;;;;;;;;;;;;;26.41;57.11;100813.47;5117120;27;19915;-64
2021/06/19 00:04:08;;;;;;;;;;;;;;;26.32;57.55;100800.03;5134119;27;19920;-65
2021/06/19 00:06:52;;;;;;;;;;;;;;;26.29;57.57;100806.47;5139212;27;19915;-64
2021/06/19 00:09:37;;;;;;;;;;;;;;;26.29;57.42;100805.66;5135231;27;19919;-63
2021/06/19 00:12:21;;;;;;;;;;;;;;;26.30;57.10;100805.25;5119679;27;19915;-64
2021/06/19 00:15:07;;;;;;;;;;;;;;;26.29;57.16;100803.69;5136300;27;19915;-64
2021/06/19 00:17:52;;;;;;;;;;;;;;;26.27;57.64;100808.88;5134784;27;19915;-65
2021/06/19 00:20:37;;;;;;;;;;;;;;;26.17;58.06;100804.19;5134681;27;19919;-65
2021/06/19 00:23:22;;;;;;;;;;;;;;;26.12;58.24;100807.47;5131099;27;19915;-64
2021/06/19 00:26:06;;;;;;;;;;;;;;;26.15;58.15;100811.41;5132360;27;20298;-65
2021/06/19 00:28:50;;;;;;;;;;;;;;;26.12;58.19;100818.63;5135243;27;19915;-64
2021/06/19 00:31:35;;;;;;;;;;;;;;;26.11;58.11;100811.44;5136929;27;19916;-65
2021/06/19 00:34:19;;;;;;;;;;;;;;;26.06;58.40;100809.13;5131737;27;19915;-65
2021/06/19 00:37:04;;;;;;;;;;;;;;;26.04;58.47;100806.00;5144083;27;19916;-65
2021/06/19 00:39:48;;;;;;;;;;;;;;;26.02;58.30;100802.03;5140855;27;19915;-64
2021/06/19 00:42:33;;;;;;;;;;;;;;;25.98;58.11;100799.28;5137187;27;20383;-63
2021/06/19 00:45:18;;;;;;;;;;;;;;;25.92;57.86;100803.75;5134397;27;20379;-64
2021/06/19 00:48:06;;;;;;;;;;;;;;;25.86;57.81;100810.97;5134374;27;19915;-65
2021/06/19 00:50:50;;;;;;;;;;;;;;;25.82;57.57;100805.47;5120748;27;19915;-65
2021/06/19 00:53:35;;;;;;;;;;;;;;;25.80;57.23;100807.88;5127678;27;19915;-64
2021/06/19 00:56:20;;;;;;;;;;;;;;;25.78;56.80;100812.28;5128467;27;19915;-64
2021/06/19 00:59:06;;;;;;;;;;;;;;;25.78;57.02;100803.94;5134627;27;19923;-63
2021/06/19 01:01:52;;;;;;;;;;;;;;;25.78;56.66;100801.16;5123871;27;19915;-63
2021/06/19 01:04:36;;;;;;;;;;;;;;;25.74;56.56;100805.97;5133597;27;20409;-62
2021/06/19 01:07:21;;;;;;;;;;;;;;;25.73;56.47;100807.19;5134327;27;19916;-63
2021/06/19 01:10:06;;;;;;;;;;;;;;;25.81;56.02;100803.88;5137021;27;19915;-64
2021/06/19 01:12:51;;;;;;;;;;;;;;;25.81;56.05;100803.09;5130105;27;19915;-63
2021/06/19 01:15:35;;;;;;;;;;;;;;;25.76;56.06;100809.91;5136249;27;19916;-63
2021/06/19 01:18:20;;;;;;;;;;;;;;;25.76;56.13;100803.53;5130687;27;19916;-62
2021/06/19 01:21:10;;;;;;;;;;;;;;;25.81;55.88;100797.50;5132039;27;19916;-64
2021/06/19 01:23:55;;;;;;;;;;;;;;;25.84;55.67;100807.84;5135982;27;19915;-62
2021/06/19 01:26:40;;;;;;;;;;;;;;;25.82;55.73;100805.47;5138734;27;20322;-63
2021/06/19 01:29:25;;;;;;;;;;;;;;;25.79;55.73;100816.66;5133052;27;19916;-63
2021/06/19 01:32:09;;;;;;;;;;;;;;;25.76;55.80;100817.47;5138118;27;19915;-63
2021/06/19 01:34:54;;;;;;;;;;;;;;;25.74;55.86;100825.47;5134564;27;19915;-62
2021/06/19 01:37:46;;;;;;;;;;;;;;;25.70;56.12;100824.72;5127882;27;19915;-63
2021/06/19 01:40:31;;;;;;;;;;;;;;;25.67;56.15;100820.78;5137354;27;19915;-64
2021/06/19 01:43:16;;;;;;;;;;;;;;;25.66;56.25;100823.97;5132627;27;19923;-64
2021/06/19 01:46:00;;;;;;;;;;;;;;;25.63;56.56;100830.38;5135239;27;19927;-64
2021/06/19 01:48:44;;;;;;;;;;;;;;;25.61;56.78;100828.00;5137549;27;19915;-63
2021/06/19 01:51:29;;;;;;;;;;;;;;;25.59;56.75;100833.22;5134054;27;19915;-64
2021/06/19 01:54:13;;;;;;;;;;;;;;;25.55;56.99;100830.44;5130070;27;20401;-64
2021/06/19 01:56:58;;;;;;;;;;;;;;;25.57;57.25;100835.59;5128211;27;19920;-64
2021/06/19 01:59:42;;;;;;;;;;;;;;;25.53;57.29;100843.97;5134029;27;19915;-64
2021/06/19 02:02:26;;;;;;;;;;;;;;;25.54;57.52;100834.44;5116609;27;19915;-63
2021/06/19 02:05:12;;;;;;;;;;;;;;;25.53;57.33;100832.84;5135130;27;19920;-64
2021/06/19 02:07:58;;;;;;;;;;;;;;;25.51;57.47;100840.00;5129403;27;20066;-64
2021/06/19 02:10:44;;;;;;;;;;;;;;;25.51;57.61;100840.00;5118596;27;19915;-63
2021/06/19 02:13:29;;;;;;;;;;;;;;;25.53;57.23;100835.63;5137597;27;19915;-63
2021/06/19 02:16:14;;;;;;;;;;;;;;;25.54;57.12;100845.56;5133049;27;19915;-61
2021/06/19 02:18:59;;;;;;;;;;;;;;;25.52;57.28;100841.59;5131504;27;20395;-64
2021/06/19 02:21:44;;;;;;;;;;;;;;;25.53;57.15;100843.97;5137017;27;20322;-64
2021/06/19 02:24:28;;;;;;;;;;;;;;;25.56;57.24;100847.94;5115088;27;19919;-63
2021/06/19 02:27:15;;;;;;;;;;;;;;;25.56;57.05;100839.59;5114572;27;20374;-64
2021/06/19 02:29:59;;;;;;;;;;;;;;;25.55;57.04;100852.72;5132625;27;19919;-63
2021/06/19 02:32:44;;;;;;;;;;;;;;;25.58;56.87;100855.91;5136437;27;19915;-62
2021/06/19 02:35:31;;;;;;;;;;;;;;;25.54;56.76;100856.72;5113444;27;21306;-62
2021/06/19 02:38:16;;;;;;;;;;;;;;;25.49;57.04;100864.72;5132548;27;20391;-64
2021/06/19 02:41:01;;;;;;;;;;;;;;;25.52;56.85;100867.47;5133983;27;19915;-63
2021/06/19 02:43:45;;;;;;;;;;;;;;;25.40;57.31;100862.41;5131915;27;19920;-62
2021/06/19 02:46:30;;;;;;;;;;;;;;;25.36;57.57;100855.28;5134971;27;20374;-63
2021/06/19 02:49:14;;;;;;;;;;;;;;;25.52;56.84;100864.66;5135362;27;19915;-61
2021/06/19 02:51:59;;;;;;;;;;;;;;;25.53;56.90;100859.91;5133616;27;20378;-64
2021/06/19 02:54:44;;;;;;;;;;;;;;;25.30;58.42;100863.28;5133367;27;20367;-64
2021/06/19 02:57:28;;;;;;;;;;;;;;;25.37;58.02;100865.22;5122544;27;19920;-64
2021/06/19 03:00:14;;;;;;;;;;;;;;;25.51;57.08;100870.66;5130790;27;20386;-64
2021/06/19 03:03:00;;;;;;;;;;;;;;;25.46;57.86;100866.31;5134199;27;19920;-64
2021/06/19 03:05:45;;;;;;;;;;;;;;;25.11;59.76;100867.44;5133465;27;19916;-64
2021/06/19 03:08:29;;;;;;;;;;;;;;;25.27;58.26;100863.31;5130352;28;19916;-63
2021/06/19 03:11:14;;;;;;;;;;;;;;;25.27;58.98;100858.56;5135972;27;19915;-63
2021/06/19 03:13:58;;;;;;;;;;;;;;;25.07;60.18;100863.09;5134390;27;20367;-63
2021/06/19 03:16:43;;;;;;;;;;;;;;;25.25;58.78;100862.94;5134250;27;19915;-64
2021/06/19 03:19:28;;;;;;;;;;;;;;;25.14;59.98;100869.38;5137263;27;19915;-64
2021/06/19 03:22:16;;;;;;;;;;;;;;;25.01;60.13;100870.31;5138248;27;19923;-62
2021/06/19 03:25:00;;;;;;;;;;;;;;;25.28;58.75;100876.84;5129960;27;19915;-64
2021/06/19 03:27:45;;;;;;;;;;;;;;;25.40;58.28;100870.75;5134946;27;19915;-64
2021/06/19 03:30:31;;;;;;;;;;;;;;;25.47;57.85;100875.47;5135510;27;19916;-63
2021/06/19 03:33:16;;;;;;;;;;;;;;;25.52;57.31;100870.25;5144033;27;19915;-61
2021/06/19 03:36:01;;;;;;;;;;;;;;;25.55;57.27;100871.44;5143979;27;20443;-62
2021/06/19 03:38:45;;;;;;;;;;;;;;;25.49;57.56;100876.66;5143933;27;20320;-62
2021/06/19 03:41:31;;;;;;;;;;;;;;;25.43;57.64;100877.50;5143912;27;19915;-62
2021/06/19 03:44:15;;;;;;;;;;;;;;;25.44;57.95;100876.31;5143962;27;19919;-63
2021/06/19 03:47:00;;;;;;;;;;;;;;;25.38;58.31;100869.59;5141177;27;19915;-61
2021/06/19 03:49:44;;;;;;;;;;;;;;;25.38;58.62;100864.81;5143733;27;19915;-62
2021/06/19 03:52:29;;;;;;;;;;;;;;;25.38;58.38;100866.81;5143617;27;19915;-61
2021/06/19 03:55:13;;;;;;;;;;;;;;;25.37;58.81;100868.81;5143656;27;19915;-63
2021/06/19 03:57:58;;;;;;;;;;;;;;;25.40;58.88;100867.16;5138432;27;20383;-61
2021/06/19 04:00:43;;;;;;;;;;;;;;;25.41;58.45;100868.75;5143586;27;19915;-61
2021/06/19 04:03:27;;;;;;;;;;;;;;;25.42;58.76;100860.00;5143392;27;20397;-61
2021/06/19 04:06:12;;;;;;;;;;;;;;;25.45;58.80;100859.16;5143003;27;19915;-61
2021/06/19 04:08:56;;;;;;;;;;;;;;;25.46;58.52;100855.19;5127847;27;19911;-62
2021/06/19 04:11:42;;;;;;;;;;;;;;;25.47;58.66;100850.41;5143281;27;19915;-61
2021/06/19 04:14:27;;;;;;;;;;;;;;;25.41;58.92;100844.50;5143279;27;19915;-62
2021/06/19 04:17:11;;;;;;;;;;;;;;;25.41;59.11;100850.06;5140047;27;19916;-62
2021/06/19 04:19:55;;;;;;;;;;;;;;;25.45;58.67;100848.03;5143226;27;20378;-62
2021/06/19 04:22:41;;;;;;;;;;;;;;;25.51;58.48;100840.81;5143201;27;19920;-63
2021/06/19 04:25:26;;;;;;;;;;;;;;;25.57;58.26;100832.81;5142777;27;19915;-62
2021/06/19 04:28:10;;;;;;;;;;;;;;;25.62;58.06;100835.16;5120162;27;19915;-63
2021/06/19 04:31:03;;;;;;;;;;;;;;;25.65;57.86;100837.09;5127352;27;19923;-63
2021/06/19 04:33:48;;;;;;;;;;;;;;;25.67;57.99;100834.69;5142753;27;19919;-62
2021/06/19 04:36:32;;;;;;;;;;;;;;;25.69;58.13;100839.88;5141309;27;19916;-62
2021/06/19 04:39:18;;;;;;;;;;;;;;;25.72;58.10;100841.81;5142768;27;20100;-62
2021/06/19 04:42:05;;;;;;;;;;;;;;;25.74;57.92;100836.63;5142356;27;19923;-61
2021/06/19 04:47:38;;;;;;;;;;;;;;;25.78;57.89;100829.81;5137965;27;20337;-61
2021/06/19 04:50:23;;;;;;;;;;;;;;;25.87;57.81;100830.09;5142503;27;20286;-62
2021/06/19 04:53:11;;;;;;;;;;;;;;;25.92;57.80;100826.03;5142467;27;19919;-61
2021/06/19 04:55:57;;;;;;;;;;;;;;;25.67;59.42;100829.13;5142441;27;20279;-62
2021/06/19 04:58:43;;;;;;;;;;;;;;;25.66;59.52;100815.59;5142321;27;19915;-63
2021/06/19 05:01:28;;;;;;;;;;;;;;;25.75;59.66;100816.69;5142145;27;19919;-63
2021/06/19 05:04:13;;;;;;;;;;;;;;;25.47;60.92;100817.78;5142159;27;19919;-63
2021/06/19 05:06:58;;;;;;;;;;;;;;;25.57;60.88;100815.31;5140001;27;19919;-63
2021/06/19 05:09:43;;;;;;;;;;;;;;;25.57;61.20;100813.31;5142077;27;19915;-63
2021/06/19 05:12:28;;;;;;;;;;;;;;;25.55;61.72;100819.31;5142027;27;19919;-62
2021/06/19 05:15:16;;;;;;;;;;;;;;;25.17;63.72;100826.03;5141999;27;20375;-63
2021/06/19 05:18:01;;;;;;;;;;;;;;;24.92;64.88;100820.69;5136518;27;19916;-61
2021/06/19 05:20:46;;;;;;;;;;;;;;;24.92;64.90;100819.91;5142082;27;20286;-62
2021/06/19 05:23:31;;;;;;;;;;;;;;;24.84;65.80;100821.16;5141591;27;19919;-64
2021/06/19 05:26:17;;;;;;;;;;;;;;;24.88;65.88;100819.16;5141223;27;19915;-63
2021/06/19 05:29:02;;;;;;;;;;;;;;;24.85;66.74;100809.59;5140132;27;19915;-64
2021/06/19 05:31:47;;;;;;;;;;;;;;;24.95;66.87;100807.94;5141688;27;19915;-63
2021/06/19 05:34:33;;;;;;;;;;;;;;;25.10;66.39;100804.63;5141613;27;19915;-63
2021/06/19 05:37:18;;;;;;;;;;;;;;;25.34;65.64;100797.25;5138052;27;19919;-64
2021/06/19 05:40:03;;;;;;;;;;;;;;;25.08;66.10;100790.34;5141183;27;19915;-64
2021/06/19 05:42:48;;;;;;;;;;;;;;;25.13;66.56;100780.75;5141334;27;19923;-63
2021/06/19 05:45:32;;;;;;;;;;;;;;;25.21;66.11;100787.81;5134619;27;19915;-63
2021/06/19 05:48:17;;;;;;;;;;;;;;;25.13;66.43;100777.97;5134935;27;20366;-63
2021/06/19 05:51:02;;;;;;;;;;;;;;;25.20;66.45;100768.75;5141463;27;19916;-62
2021/06/19 05:53:46;;;;;;;;;;;;;;;25.28;66.36;100762.69;5141161;27;19915;-63
2021/06/19 05:56:31;;;;;;;;;;;;;;;25.39;65.67;100757.03;5140446;27;20390;-63
2021/06/19 05:59:15;;;;;;;;;;;;;;;25.45;65.97;100753.34;5141030;27;19915;-63
2021/06/19 06:02:03;;;;;;;;;;;;;;;25.46;65.46;100754.94;5141047;27;19923;-62
2021/06/19 06:04:47;;;;;;;;;;;;;;;25.65;64.84;100753.53;5125378;27;19915;-63
2021/06/19 06:07:32;;;;;;;;;;;;;;;25.70;64.35;100752.31;5137145;27;19915;-62
2021/06/19 06:10:16;;;;;;;;;;;;;;;25.69;63.73;100742.38;5140997;27;19919;-64
2021/06/19 06:13:03;;;;;;;;;;;;;;;25.77;63.76;100752.19;5118559;27;19915;-64
2021/06/19 06:15:48;;;;;;;;;;;;;;;25.86;63.30;100750.47;5125315;27;19915;-63
2021/06/19 06:18:32;;;;;;;;;;;;;;;25.90;62.71;100750.44;5141095;27;19916;-62
2021/06/19 06:21:17;;;;;;;;;;;;;;;25.95;63.18;100752.75;5140715;27;19916;-62
2021/06/19 06:24:01;;;;;;;;;;;;;;;25.94;62.36;100751.19;5140691;27;19920;-63
2021/06/19 06:26:46;;;;;;;;;;;;;;;26.06;61.14;100755.41;5138965;27;19916;-62
2021/06/19 06:29:30;;;;;;;;;;;;;;;26.19;60.44;100753.63;5137387;27;19927;-63
2021/06/19 06:32:15;;;;;;;;;;;;;;;26.29;60.18;100749.91;5140513;27;19916;-63
2021/06/19 06:34:59;;;;;;;;;;;;;;;26.37;59.71;100752.16;5140630;27;19915;-62
2021/06/19 06:37:44;;;;;;;;;;;;;;;26.38;60.71;100762.09;5135707;27;19915;-62
2021/06/19 06:40:28;;;;;;;;;;;;;;;26.48;60.21;100762.34;5140527;27;19920;-64
2021/06/19 06:43:13;;;;;;;;;;;;;;;26.51;61.11;100767.09;5139998;27;19919;-64
2021/06/19 06:45:57;;;;;;;;;;;;;;;26.52;62.35;100772.25;5132354;27;19941;-65
2021/06/19 06:48:42;;;;;;;;;;;;;;;26.50;61.22;100776.69;5138227;27;20295;-64
2021/06/19 06:51:27;;;;;;;;;;;;;;;26.48;60.92;100781.88;5130914;27;19916;-63
2021/06/19 06:54:12;;;;;;;;;;;;;;;26.58;61.96;100775.34;5128756;27;19916;-65
2021/06/19 06:56:56;;;;;;;;;;;;;;;26.53;61.59;100781.41;5129865;27;19916;-64
2021/06/19 06:59:41;;;;;;;;;;;;;;;26.56;60.86;100780.56;5124201;27;20302;-64
2021/06/19 07:02:26;;;;;;;;;;;;;;;26.58;61.09;100794.88;5138043;27;19915;-64
2021/06/19 07:05:11;;;;;;;;;;;;;;;26.56;61.95;100800.09;5130403;27;19915;-65
2021/06/19 07:07:55;;;;;;;;;;;;;;;26.59;61.65;100791.66;5128704;27;19915;-64
2021/06/19 07:10:40;;;;;;;;;;;;;;;26.60;60.85;100789.66;5137321;27;19916;-65
2021/06/19 07:13:24;;;;;;;;;;;;;;;26.70;61.41;100786.72;5135261;27;19916;-65
2021/06/19 07:16:09;;;;;;;;;;;;;;;26.68;60.83;100788.31;5136108;27;19920;-66
2021/06/19 07:18:54;;;;;;;;;;;;;;;26.69;62.00;100806.66;5131941;27;19919;-66
2021/06/19 07:21:39;;;;;;;;;;;;;;;26.75;60.79;100799.38;5136822;27;20395;-64
2021/06/19 07:24:24;;;;;;;;;;;;;;;26.71;61.69;100812.63;5118224;28;19920;-63
2021/06/19 07:27:09;;;;;;;;;;;;;;;26.83;62.11;100810.00;5132597;27;19923;-64
2021/06/19 07:29:53;;;;;;;;;;;;;;;26.85;62.02;100815.16;5130777;27;19919;-64
2021/06/19 07:32:37;;;;;;;;;;;;;;;26.83;62.28;100812.78;5116562;28;20289;-64
2021/06/19 07:35:22;;;;;;;;;;;;;;;26.92;61.17;100826.22;5132132;27;19915;-65
2021/06/19 07:38:07;;;;;;;;;;;;;;;26.99;60.03;100817.75;5129853;27;20312;-65
2021/06/19 07:40:52;;;;;;;;;;;;;;;27.05;60.45;100818.03;5129586;27;19916;-65
2021/06/19 07:43:37;;;;;;;;;;;;;;;27.04;60.50;100817.25;5138600;27;19919;-66
2021/06/19 07:46:22;;;;;;;;;;;;;;;27.06;60.00;100814.03;5137074;27;20290;-64
2021/06/19 07:49:06;;;;;;;;;;;;;;;27.03;59.64;100815.66;5134312;27;19919;-63
2021/06/19 07:51:50;;;;;;;;;;;;;;;27.03;59.82;100804.50;5129098;27;19916;-64
2021/06/19 07:54:37;;;;;;;;;;;;;;;27.11;59.34;100816.34;5130977;27;19916;-63
2021/06/19 07:57:22;;;;;;;;;;;;;;;27.03;59.42;100814.88;5110324;28;19916;-64
2021/06/19 08:00:07;;;;;;;;;;;;;;;27.03;59.10;100804.50;5139222;27;20382;-64
2021/06/19 08:02:52;;;;;;;;;;;;;;;27.16;58.39;100810.28;5140182;27;19919;-64
2021/06/19 08:05:37;;;;;;;;;;;;;;;27.09;58.14;100818.78;5137632;27;20390;-63
2021/06/19 08:08:21;;;;;;;;;;;;;;;27.06;58.42;100812.03;5135524;27;19915;-63
2021/06/19 08:11:06;;;;;;;;;;;;;;;27.11;57.97;100810.78;5141050;27;19915;-63
2021/06/19 08:13:50;;;;;;;;;;;;;;;27.11;57.62;100797.59;5137344;27;19916;-64
2021/06/19 08:16:36;;;;;;;;;;;;;;;27.06;58.24;100791.72;5121619;27;19923;-63
2021/06/19 08:19:20;;;;;;;;;;;;;;;27.07;58.42;100794.06;5140067;27;19919;-63
2021/06/19 08:22:06;;;;;;;;;;;;;;;27.32;57.23;100795.63;5139043;27;20156;-63
2021/06/19 08:24:51;;;;;;;;;;;;;;;27.30;57.73;100790.47;5128351;27;19919;-63
2021/06/19 08:27:37;;;;;;;;;;;;;;;27.27;57.36;100784.94;5132583;27;19924;-64
2021/06/19 08:30:21;;;;;;;;;;;;;;;27.31;56.40;100782.88;5132734;27;19915;-64
2021/06/19 08:33:06;;;;;;;;;;;;;;;27.23;56.54;100777.41;5137162;27;19916;-64
2021/06/19 08:35:50;;;;;;;;;;;;;;;27.31;56.99;100782.88;5134917;27;20294;-64
2021/06/19 08:38:36;;;;;;;;;;;;;;;27.33;56.63;100772.84;5139286;27;20387;-64
2021/06/19 08:41:21;;;;;;;;;;;;;;;27.42;56.29;100763.91;5137013;27;19915;-64
2021/06/19 08:44:06;;;;;;;;;;;;;;;27.32;56.30;100773.28;5134976;27;19919;-63
2021/06/19 08:46:51;;;;;;;;;;;;;;;27.42;56.41;100761.91;5132437;27;19916;-64
2021/06/19 08:49:37;;;;;;;;;;;;;;;27.38;56.05;100749.22;5120523;27;19928;-63
2021/06/19 08:52:22;;;;;;;;;;;;;;;27.47;54.94;100755.81;5119356;27;19915;-64
2021/06/19 08:55:11;;;;;;;;;;;;;;;27.45;55.53;100747.06;5139236;27;19915;-65
2021/06/19 08:57:56;;;;;;;;;;;;;;;27.49;55.90;100747.00;5134443;27;19915;-64
2021/06/19 09:00:41;;;;;;;;;;;;;;;27.60;53.97;100748.38;5125894;27;19915;-64
2021/06/19 09:03:27;;;;;;;;;;;;;;;27.48;55.47;100748.22;5126715;27;19920;-64
2021/06/19 09:06:16;;;;;;;;;;;;;;;27.35;55.69;100752.88;5126302;27;19916;-63
2021/06/19 09:09:08;;;;;;;;;;;;;;;27.22;56.17;100752.72;5128143;27;19919;-64
2021/06/19 09:11:54;;;;;;;;;;;;;;;27.42;55.46;100752.75;5128457;27;19924;-63
2021/06/19 09:14:38;;;;;;;;;;;;;;;27.43;55.69;100757.13;5121574;27;19916;-63
2021/06/19 09:17:23;;;;;;;;;;;;;;;27.44;55.37;100755.88;5126605;27;21222;-65
2021/06/19 09:20:08;;;;;;;;;;;;;;;27.44;55.07;100750.28;5128451;27;20289;-65
2021/06/19 09:23:01;;;;;;;;;;;;;;;27.20;55.79;100750.34;5128060;27;19916;-64
2021/06/19 09:25:46;;;;;;;;;;;;;;;27.07;55.58;100738.22;5130052;27;19916;-64
2021/06/19 09:28:31;;;;;;;;;;;;;;;27.04;55.67;100738.28;5115518;27;19915;-64
2021/06/19 09:31:28;;;;;;;;;;;;;;;27.14;55.58;100729.72;5136459;27;19916;-63
2021/06/19 09:34:18;;;;;;;;;;;;;;;27.21;54.85;100739.97;5138053;27;19916;-63
2021/06/19 09:37:11;;;;;;;;;;;;;;;27.27;54.28;100734.69;5131817;27;19916;-63
2021/06/19 09:39:56;;;;;;;;;;;;;;;27.38;54.90;100740.84;5123237;27;19915;-64
2021/06/19 09:42:40;;;;;;;;;;;;;;;27.29;55.07;100751.78;5138954;27;20370;-64
2021/06/19 09:45:25;;;;;;;;;;;;;;;27.12;55.17;100740.50;5135984;27;19915;-63
2021/06/19 09:48:24;;;;;;;;;;;;;;;27.22;54.22;100742.34;5116599;27;19941;-64
2021/06/19 09:51:21;;;;;;;;;;;;;;;27.22;54.36;100739.56;5138756;27;19955;-63
2021/06/19 09:54:07;;;;;;;;;;;;;;;27.18;54.18;100730.44;5136225;27;19915;-64
2021/06/19 09:56:53;;;;;;;;;;;;;;;27.20;54.30;100735.59;5134068;27;19916;-63
2021/06/19 09:59:39;;;;;;;;;;;;;;;27.30;53.73;100733.81;5138360;27;19916;-63
2021/06/19 10:02:24;;;;;;;;;;;;;;;27.30;53.55;100728.22;5135681;27;19915;-63
2021/06/19 10:05:09;;;;;;;;;;;;;;;27.21;53.21;100734.38;5133700;27;19961;-64
2021/06/19 10:07:54;;;;;;;;;;;;;;;27.34;52.95;100735.31;5128071;27;19916;-64
2021/06/19 10:10:39;;;;;;;;;;;;;;;27.61;52.67;100724.03;5131571;27;19923;-66
2021/06/19 10:13:23;;;;;;;;;;;;;;;27.65;52.38;100722.72;5130018;27;19916;-66
2021/06/19 10:16:10;;;;;;;;;;;;;;;27.50;53.35;100727.03;5133733;27;19916;-65
2021/06/19 10:18:54;;;;;;;;;;;;;;;27.35;53.67;100717.34;5134955;27;19915;-64
2021/06/19 10:21:38;;;;;;;;;;;;;;;27.50;53.13;100706.69;5129139;27;20369;-64
2021/06/19 10:24:24;;;;;;;;;;;;;;;27.46;52.92;100720.72;5131310;27;19920;-66
2021/06/19 10:27:09;;;;;;;;;;;;;;;27.48;52.85;100726.66;5132746;27;20299;-64
2021/06/19 10:29:54;;;;;;;;;;;;;;;27.43;52.01;100720.78;5127143;27;19923;-64
2021/06/19 10:32:47;;;;;;;;;;;;;;;27.36;53.53;100726.53;5136990;27;19916;-64
2021/06/19 10:35:50;;;;;;;;;;;;;;;27.48;51.97;100717.50;5131613;27;19915;-66
2021/06/19 10:38:55;;;;;;;;;;;;;;;27.50;50.38;100715.06;5117363;27;19916;-65
2021/06/19 10:41:44;;;;;;;;;;;;;;;27.51;52.39;100713.88;5135360;27;19919;-65
2021/06/19 10:44:48;;;;;;;;;;;;;;;27.64;50.11;100714.78;5133697;27;19923;-65
2021/06/19 10:47:51;;;;;;;;;;;;;;;27.67;50.43;100716.72;5117723;27;19915;-65
2021/06/19 10:50:37;;;;;;;;;;;;;;;27.69;51.10;100719.84;5133240;27;19915;-65
2021/06/19 10:53:23;;;;;;;;;;;;;;;27.61;50.52;100715.66;5131819;27;19915;-65
2021/06/19 10:56:07;;;;;;;;;;;;;;;27.38;50.89;100704.53;5136004;27;19916;-65
2021/06/19 10:59:11;;;;;;;;;;;;;;;27.62;50.09;100701.25;5123611;27;19915;-65
2021/06/19 11:01:57;;;;;;;;;;;;;;;27.58;50.67;100696.97;5129221;27;20286;-67
2021/06/19 11:04:42;;;;;;;;;;;;;;;27.51;50.34;100702.69;5129882;27;19919;-66
2021/06/19 11:07:27;;;;;;;;;;;;;;;27.43;50.57;100699.22;5128212;27;19916;-65
2021/06/19 11:10:31;;;;;;;;;;;;;;;27.54;49.68;100687.84;5135444;27;19915;-65
2021/06/19 11:13:28;;;;;;;;;;;;;;;27.52;49.62;100681.91;5133402;27;19915;-63
2021/06/19 11:16:32;;;;;;;;;;;;;;;27.56;49.65;100680.63;5130036;28;20453;-65
2021/06/19 11:19:31;;;;;;;;;;;;;;;27.44;49.70;100683.25;5128251;27;19916;-63
2021/06/19 11:22:34;;;;;;;;;;;;;;;27.37;49.81;100678.63;5129139;27;19915;-65
2021/06/19 11:25:28;;;;;;;;;;;;;;;27.37;49.74;100680.63;5131746;27;19924;-64
2021/06/19 11:28:19;;;;;;;;;;;;;;;27.51;48.53;100671.97;5130973;27;19915;-65
2021/06/19 11:31:16;;;;;;;;;;;;;;;27.50;49.56;100673.97;5134313;27;19915;-64
2021/06/19 11:34:01;;;;;;;;;;;;;;;27.51;48.77;100672.75;5131090;27;19915;-64
2021/06/19 11:36:56;;;;;;;;;;;;;;;27.32;49.32;100679.13;5136777;27;20398;-64
2021/06/19 11:39:41;;;;;;;;;;;;;;;27.43;49.41;100674.06;5137047;27;19916;-64
2021/06/19 11:42:25;;;;;;;;;;;;;;;27.16;50.13;100679.84;5141556;27;20350;-64
2021/06/19 11:45:16;;;;;;;;;;;;;;;27.38;49.34;100679.41;5137269;27;20398;-64
2021/06/19 11:48:01;;;;;;;;;;;;;;;27.32;49.96;100681.91;5136292;27;19916;-63
2021/06/19 11:50:45;;;;;;;;;;;;;;;27.38;50.09;100685.00;5136002;27;20298;-64
2021/06/19 11:53:37;;;;;;;;;;;;;;;27.20;50.93;100677.75;5135361;27;19915;-64
2021/06/19 11:56:26;;;;;;;;;;;;;;;27.19;50.65;100681.75;5132929;27;20378;-63
2021/06/19 11:59:12;;;;;;;;;;;;;;;27.16;50.09;100688.22;5135218;27;19919;-65
2021/06/19 12:01:56;;;;;;;;;;;;;;;27.38;49.40;100682.97;5131358;27;19915;-64
2021/06/19 12:04:41;;;;;;;;;;;;;;;27.30;48.87;100683.53;5133069;27;19919;-63
2021/06/19 12:07:26;;;;;;;;;;;;;;;27.28;49.01;100686.00;5130079;27;19915;-64
2021/06/19 12:10:28;;;;;;;;;;;;;;;27.37;48.53;100678.63;5116437;27;20294;-64
2021/06/19 12:13:13;;;;;;;;;;;;;;;27.30;47.66;100694.72;5130307;27;20458;-63
2021/06/19 12:15:59;;;;;;;;;;;;;;;27.33;48.70;100689.03;5139390;27;19915;-64
2021/06/19 12:18:47;;;;;;;;;;;;;;;27.44;47.20;100689.63;5131924;27;19923;-64
2021/06/19 12:21:36;;;;;;;;;;;;;;;27.24;47.53;100684.03;5116349;27;19916;-65
2021/06/19 12:24:29;;;;;;;;;;;;;;;27.39;44.74;100684.53;5115829;27;19923;-64
2021/06/19 12:27:17;;;;;;;;;;;;;;;27.31;48.05;100685.13;5133879;27;19916;-64
2021/06/19 12:30:01;;;;;;;;;;;;;;;27.40;47.26;100680.53;5136366;27;20287;-64
2021/06/19 12:32:46;;;;;;;;;;;;;;;27.37;47.60;100686.19;5124582;27;19919;-64
2021/06/19 12:35:30;;;;;;;;;;;;;;;27.22;47.50;100685.72;5122476;27;19916;-64
2021/06/19 12:38:17;;;;;;;;;;;;;;;27.14;46.55;100675.88;5129610;27;19920;-65
2021/06/19 12:41:04;;;;;;;;;;;;;;;27.34;46.71;100682.25;5139197;27;19915;-64
2021/06/19 12:43:53;;;;;;;;;;;;;;;27.18;47.20;100684.97;5139338;27;19919;-63
2021/06/19 12:46:38;;;;;;;;;;;;;;;27.24;47.20;100683.25;5135897;27;20383;-64
2021/06/19 12:49:23;;;;;;;;;;;;;;;27.19;45.79;100678.16;5138053;27;19916;-63
2021/06/19 12:52:07;;;;;;;;;;;;;;;27.12;46.08;100679.09;5141350;27;19916;-65
2021/06/19 12:55:08;;;;;;;;;;;;;;;27.06;45.54;100678.03;5134127;27;19916;-64
2021/06/19 12:58:05;;;;;;;;;;;;;;;27.13;45.32;100679.88;5116506;27;19916;-63
2021/06/19 13:00:54;;;;;;;;;;;;;;;27.17;44.32;100678.59;5136297;27;19919;-64
2021/06/19 13:03:38;;;;;;;;;;;;;;;27.19;44.04;100673.38;5135356;27;19919;-64
2021/06/19 13:06:30;;;;;;;;;;;;;;;27.18;45.10;100677.38;5143175;27;19923;-63
2021/06/19 13:09:15;;;;;;;;;;;;;;;27.27;45.12;100684.41;5140796;27;20101;-64
2021/06/19 13:11:59;;;;;;;;;;;;;;;27.18;45.92;100673.81;5133204;27;19919;-64
2021/06/19 13:14:44;;;;;;;;;;;;;;;27.27;44.55;100678.84;5133797;27;20314;-63
2021/06/19 13:17:29;;;;;;;;;;;;;;;27.24;43.84;100670.09;5131341;27;19923;-63
2021/06/19 13:20:37;;;;;;;;;;;;;;;27.35;45.35;100669.06;5135008;27;19915;-64
2021/06/19 13:23:25;;;;;;;;;;;;;;;27.35;44.97;100660.69;5117108;27;19919;-64
2021/06/19 13:26:11;;;;;;;;;;;;;;;27.52;44.57;100657.56;5134068;27;19923;-64
2021/06/19 13:29:01;;;;;;;;;;;;;;;27.17;44.89;100661.84;5125235;27;19915;-63
2021/06/19 13:31:47;;;;;;;;;;;;;;;27.27;45.25;100659.28;5131671;27;19915;-64
2021/06/19 13:34:32;;;;;;;;;;;;;;;27.13;45.62;100654.75;5129805;27;19916;-63
2021/06/19 13:37:18;;;;;;;;;;;;;;;27.26;44.71;100652.13;5131730;27;19915;-64
2021/06/19 13:40:06;;;;;;;;;;;;;;;27.17;45.63;100649.91;5134271;27;19919;-63
2021/06/19 13:42:58;;;;;;;;;;;;;;;27.42;43.83;100641.00;5127622;27;19916;-64
2021/06/19 13:45:43;;;;;;;;;;;;;;;27.62;43.59;100644.56;5128368;27;19949;-64
2021/06/19 13:48:27;;;;;;;;;;;;;;;27.34;44.71;100642.34;5131743;27;20298;-64
2021/06/19 13:51:13;;;;;;;;;;;;;;;27.33;43.81;100638.78;5135535;27;19915;-63
2021/06/19 13:53:58;;;;;;;;;;;;;;;27.45;44.09;100628.94;5136264;27;19915;-64
2021/06/19 13:56:43;;;;;;;;;;;;;;;27.77;42.61;100629.06;5134985;27;20270;-64
2021/06/19 13:59:30;;;;;;;;;;;;;;;27.44;43.67;100624.59;5123309;27;20387;-63
2021/06/19 14:02:15;;;;;;;;;;;;;;;27.53;43.33;100627.63;5122808;27;19916;-63
2021/06/19 14:04:59;;;;;;;;;;;;;;;27.49;43.66;100619.31;5127660;27;19920;-63
2021/06/19 14:07:44;;;;;;;;;;;;;;;27.58;43.45;100616.69;5133037;27;19923;-63
2021/06/19 14:10:29;;;;;;;;;;;;;;;27.58;43.04;100613.13;5134741;27;20362;-63
2021/06/19 14:13:14;;;;;;;;;;;;;;;27.57;42.44;100609.56;5136869;27;20338;-64
2021/06/19 14:16:00;;;;;;;;;;;;;;;27.62;43.42;100611.03;5135187;27;20406;-64